sensor_id;sensor_type;location;lat;lon;timestamp;P1;durP1;ratioP1;P2;durP2;ratioP2
18455;SDS011;9357;49.900;8.208;2023-08-17T00:00:25;8.43;;;7.63;;
18455;SDS011;9357;49.900;8.208;2023-08-17T00:01:57;7.80;;;7.00;;
18455;SDS011;9357;49.900;8.208;2023-08-17T00:03:30;7.60;;;6.80;;
18455;SDS011;9357;49.900;8.208;2023-08-17T00:05:02;10.60;;;6.87;;
18455;SDS011;9357;49.900;8.208;2023-08-17T00:06:35;7.27;;;6.27;;
18455;SDS011;9357;49.900;8.208;2023-08-17T00:08:07;6.90;;;6.23;;
18455;SDS011;9357;49.900;8.208;2023-08-17T00:09:40;7.13;;;5.73;;
18455;SDS011;9357;49.900;8.208;2023-08-17T00:11:13;7.93;;;6.63;;
18455;SDS011;9357;49.900;8.208;2023-08-17T00:12:45;6.30;;;5.70;;
18455;SDS011;9357;49.900;8.208;2023-08-17T00:14:19;8.27;;;6.50;;
18455;SDS011;9357;49.900;8.208;2023-08-17T00:15:51;6.73;;;5.90;;
18455;SDS011;9357;49.900;8.208;2023-08-17T00:17:23;8.00;;;5.70;;
18455;SDS011;9357;49.900;8.208;2023-08-17T00:18:56;7.47;;;5.70;;
18455;SDS011;9357;49.900;8.208;2023-08-17T00:20:29;9.07;;;6.27;;
18455;SDS011;9357;49.900;8.208;2023-08-17T00:22:00;8.07;;;7.00;;
18455;SDS011;9357;49.900;8.208;2023-08-17T00:23:33;7.47;;;6.47;;
18455;SDS011;9357;49.900;8.208;2023-08-17T00:25:05;7.63;;;5.43;;
18455;SDS011;9357;49.900;8.208;2023-08-17T00:26:39;6.43;;;5.83;;
18455;SDS011;9357;49.900;8.208;2023-08-17T00:28:11;6.53;;;5.93;;
18455;SDS011;9357;49.900;8.208;2023-08-17T00:29:45;8.90;;;7.97;;
18455;SDS011;9357;49.900;8.208;2023-08-17T00:31:17;7.67;;;6.80;;
18455;SDS011;9357;49.900;8.208;2023-08-17T00:32:49;7.20;;;6.50;;
18455;SDS011;9357;49.900;8.208;2023-08-17T00:34:21;8.13;;;7.43;;
18455;SDS011;9357;49.900;8.208;2023-08-17T00:35:54;9.67;;;6.90;;
18455;SDS011;9357;49.900;8.208;2023-08-17T00:37:27;8.90;;;6.77;;
18455;SDS011;9357;49.900;8.208;2023-08-17T00:38:59;11.77;;;7.70;;
18455;SDS011;9357;49.900;8.208;2023-08-17T00:40:32;7.03;;;6.30;;
18455;SDS011;9357;49.900;8.208;2023-08-17T00:42:03;8.20;;;7.37;;
18455;SDS011;9357;49.900;8.208;2023-08-17T00:43:39;9.33;;;6.77;;
18455;SDS011;9357;49.900;8.208;2023-08-17T00:45:12;10.47;;;7.60;;
18455;SDS011;9357;49.900;8.208;2023-08-17T00:46:44;9.23;;;8.33;;
18455;SDS011;9357;49.900;8.208;2023-08-17T00:48:16;8.47;;;6.90;;
18455;SDS011;9357;49.900;8.208;2023-08-17T00:49:49;9.53;;;7.83;;
18455;SDS011;9357;49.900;8.208;2023-08-17T00:51:21;10.23;;;7.87;;
18455;SDS011;9357;49.900;8.208;2023-08-17T00:52:55;11.13;;;8.30;;
18455;SDS011;9357;49.900;8.208;2023-08-17T00:54:28;9.13;;;8.00;;
18455;SDS011;9357;49.900;8.208;2023-08-17T00:56:02;7.80;;;7.00;;
18455;SDS011;9357;49.900;8.208;2023-08-17T00:57:34;7.60;;;6.90;;
18455;SDS011;9357;49.900;8.208;2023-08-17T00:59:08;10.20;;;7.77;;
18455;SDS011;9357;49.900;8.208;2023-08-17T01:00:41;7.40;;;6.60;;
18455;SDS011;9357;49.900;8.208;2023-08-17T01:02:14;9.50;;;7.00;;
18455;SDS011;9357;49.900;8.208;2023-08-17T01:03:46;8.90;;;7.47;;
18455;SDS011;9357;49.900;8.208;2023-08-17T01:05:19;7.37;;;6.67;;
18455;SDS011;9357;49.900;8.208;2023-08-17T01:06:51;7.10;;;6.40;;
18455;SDS011;9357;49.900;8.208;2023-08-17T01:08:24;12.10;;;8.10;;
18455;SDS011;9357;49.900;8.208;2023-08-17T01:09:56;8.53;;;7.10;;
18455;SDS011;9357;49.900;8.208;2023-08-17T01:11:30;10.17;;;8.17;;
18455;SDS011;9357;49.900;8.208;2023-08-17T01:13:09;10.33;;;7.17;;
18455;SDS011;9357;49.900;8.208;2023-08-17T01:14:48;7.17;;;6.47;;
18455;SDS011;9357;49.900;8.208;2023-08-17T01:16:30;7.53;;;6.33;;
18455;SDS011;9357;49.900;8.208;2023-08-17T01:18:05;7.03;;;6.10;;
18455;SDS011;9357;49.900;8.208;2023-08-17T01:19:43;6.83;;;6.17;;
18455;SDS011;9357;49.900;8.208;2023-08-17T01:21:16;7.83;;;6.50;;
18455;SDS011;9357;49.900;8.208;2023-08-17T01:22:55;9.10;;;7.67;;
18455;SDS011;9357;49.900;8.208;2023-08-17T01:24:29;9.20;;;7.10;;
18455;SDS011;9357;49.900;8.208;2023-08-17T01:26:02;10.43;;;8.00;;
18455;SDS011;9357;49.900;8.208;2023-08-17T01:27:36;10.27;;;7.53;;
18455;SDS011;9357;49.900;8.208;2023-08-17T01:29:10;8.47;;;7.47;;
18455;SDS011;9357;49.900;8.208;2023-08-17T01:30:44;9.20;;;7.47;;
18455;SDS011;9357;49.900;8.208;2023-08-17T01:32:22;10.63;;;8.67;;
18455;SDS011;9357;49.900;8.208;2023-08-17T01:34:02;11.90;;;8.43;;
18455;SDS011;9357;49.900;8.208;2023-08-17T01:35:38;11.83;;;9.57;;
18455;SDS011;9357;49.900;8.208;2023-08-17T01:37:16;12.67;;;9.13;;
18455;SDS011;9357;49.900;8.208;2023-08-17T01:38:52;14.37;;;9.13;;
18455;SDS011;9357;49.900;8.208;2023-08-17T01:40:28;10.30;;;8.13;;
18455;SDS011;9357;49.900;8.208;2023-08-17T01:42:03;16.60;;;12.10;;
18455;SDS011;9357;49.900;8.208;2023-08-17T01:43:37;12.80;;;10.13;;
18455;SDS011;9357;49.900;8.208;2023-08-17T01:45:09;16.47;;;11.97;;
18455;SDS011;9357;49.900;8.208;2023-08-17T01:46:42;17.67;;;13.80;;
18455;SDS011;9357;49.900;8.208;2023-08-17T01:48:14;19.33;;;14.40;;
18455;SDS011;9357;49.900;8.208;2023-08-17T01:49:47;18.43;;;15.77;;
18455;SDS011;9357;49.900;8.208;2023-08-17T01:51:20;17.80;;;14.40;;
18455;SDS011;9357;49.900;8.208;2023-08-17T01:52:52;16.37;;;13.63;;
18455;SDS011;9357;49.900;8.208;2023-08-17T01:54:24;17.77;;;14.63;;
18455;SDS011;9357;49.900;8.208;2023-08-17T01:55:58;16.17;;;12.40;;
18455;SDS011;9357;49.900;8.208;2023-08-17T01:57:30;18.57;;;14.10;;
18455;SDS011;9357;49.900;8.208;2023-08-17T01:59:03;20.37;;;13.83;;
18455;SDS011;9357;49.900;8.208;2023-08-17T02:00:35;15.43;;;12.50;;
18455;SDS011;9357;49.900;8.208;2023-08-17T02:02:08;17.97;;;12.43;;
18455;SDS011;9357;49.900;8.208;2023-08-17T02:03:40;19.33;;;13.57;;
18455;SDS011;9357;49.900;8.208;2023-08-17T02:05:12;13.67;;;12.07;;
18455;SDS011;9357;49.900;8.208;2023-08-17T02:06:44;15.40;;;13.10;;
18455;SDS011;9357;49.900;8.208;2023-08-17T02:08:17;17.70;;;13.27;;
18455;SDS011;9357;49.900;8.208;2023-08-17T02:09:48;19.97;;;17.20;;
18455;SDS011;9357;49.900;8.208;2023-08-17T02:11:22;20.63;;;15.47;;
18455;SDS011;9357;49.900;8.208;2023-08-17T02:12:54;19.13;;;15.80;;
18455;SDS011;9357;49.900;8.208;2023-08-17T02:14:38;16.47;;;14.13;;
18455;SDS011;9357;49.900;8.208;2023-08-17T02:16:10;23.67;;;18.03;;
18455;SDS011;9357;49.900;8.208;2023-08-17T02:17:43;17.93;;;15.73;;
18455;SDS011;9357;49.900;8.208;2023-08-17T02:19:15;15.77;;;13.27;;
18455;SDS011;9357;49.900;8.208;2023-08-17T02:20:48;19.03;;;15.10;;
18455;SDS011;9357;49.900;8.208;2023-08-17T02:22:19;20.97;;;17.33;;
18455;SDS011;9357;49.900;8.208;2023-08-17T02:23:52;21.87;;;17.90;;
18455;SDS011;9357;49.900;8.208;2023-08-17T02:25:25;19.77;;;16.80;;
18455;SDS011;9357;49.900;8.208;2023-08-17T02:26:59;23.93;;;17.97;;
18455;SDS011;9357;49.900;8.208;2023-08-17T02:28:31;21.50;;;17.10;;
18455;SDS011;9357;49.900;8.208;2023-08-17T02:30:04;27.60;;;20.07;;
18455;SDS011;9357;49.900;8.208;2023-08-17T02:31:37;22.37;;;17.63;;
18455;SDS011;9357;49.900;8.208;2023-08-17T02:33:09;24.60;;;19.13;;
18455;SDS011;9357;49.900;8.208;2023-08-17T02:34:41;24.07;;;18.63;;
18455;SDS011;9357;49.900;8.208;2023-08-17T02:36:13;22.93;;;17.77;;
18455;SDS011;9357;49.900;8.208;2023-08-17T02:37:46;20.00;;;16.00;;
18455;SDS011;9357;49.900;8.208;2023-08-17T02:39:19;20.40;;;16.23;;
18455;SDS011;9357;49.900;8.208;2023-08-17T02:40:51;18.20;;;14.83;;
18455;SDS011;9357;49.900;8.208;2023-08-17T02:42:25;18.40;;;15.27;;
18455;SDS011;9357;49.900;8.208;2023-08-17T02:43:57;22.63;;;18.40;;
18455;SDS011;9357;49.900;8.208;2023-08-17T02:45:29;21.93;;;17.60;;
18455;SDS011;9357;49.900;8.208;2023-08-17T02:47:02;21.60;;;17.90;;
18455;SDS011;9357;49.900;8.208;2023-08-17T02:48:34;22.37;;;17.83;;
18455;SDS011;9357;49.900;8.208;2023-08-17T02:50:07;24.03;;;18.90;;
18455;SDS011;9357;49.900;8.208;2023-08-17T02:51:40;23.37;;;18.90;;
18455;SDS011;9357;49.900;8.208;2023-08-17T02:53:12;21.07;;;15.77;;
18455;SDS011;9357;49.900;8.208;2023-08-17T02:54:44;20.87;;;17.20;;
18455;SDS011;9357;49.900;8.208;2023-08-17T02:56:17;26.20;;;20.20;;
18455;SDS011;9357;49.900;8.208;2023-08-17T02:57:50;20.07;;;16.57;;
18455;SDS011;9357;49.900;8.208;2023-08-17T02:59:23;18.43;;;15.13;;
18455;SDS011;9357;49.900;8.208;2023-08-17T03:00:54;26.97;;;20.57;;
18455;SDS011;9357;49.900;8.208;2023-08-17T03:02:27;28.23;;;21.97;;
18455;SDS011;9357;49.900;8.208;2023-08-17T03:03:59;29.20;;;22.87;;
18455;SDS011;9357;49.900;8.208;2023-08-17T03:05:33;31.77;;;21.90;;
18455;SDS011;9357;49.900;8.208;2023-08-17T03:07:04;33.30;;;24.50;;
18455;SDS011;9357;49.900;8.208;2023-08-17T03:08:37;32.57;;;24.43;;
18455;SDS011;9357;49.900;8.208;2023-08-17T03:10:10;31.57;;;23.17;;
18455;SDS011;9357;49.900;8.208;2023-08-17T03:11:43;23.77;;;19.77;;
18455;SDS011;9357;49.900;8.208;2023-08-17T03:13:16;35.30;;;26.53;;
18455;SDS011;9357;49.900;8.208;2023-08-17T03:14:48;34.90;;;25.60;;
18455;SDS011;9357;49.900;8.208;2023-08-17T03:16:20;36.83;;;27.10;;
18455;SDS011;9357;49.900;8.208;2023-08-17T03:17:53;38.43;;;27.33;;
18455;SDS011;9357;49.900;8.208;2023-08-17T03:19:25;32.20;;;23.60;;
18455;SDS011;9357;49.900;8.208;2023-08-17T03:20:57;32.83;;;24.67;;
18455;SDS011;9357;49.900;8.208;2023-08-17T03:22:29;31.10;;;24.10;;
18455;SDS011;9357;49.900;8.208;2023-08-17T03:24:02;30.80;;;23.77;;
18455;SDS011;9357;49.900;8.208;2023-08-17T03:25:34;27.17;;;22.30;;
18455;SDS011;9357;49.900;8.208;2023-08-17T03:27:07;28.30;;;21.10;;
18455;SDS011;9357;49.900;8.208;2023-08-17T03:28:41;25.47;;;19.70;;
18455;SDS011;9357;49.900;8.208;2023-08-17T03:30:13;28.43;;;21.70;;
18455;SDS011;9357;49.900;8.208;2023-08-17T03:31:46;31.77;;;23.27;;
18455;SDS011;9357;49.900;8.208;2023-08-17T03:33:18;31.97;;;23.77;;
18455;SDS011;9357;49.900;8.208;2023-08-17T03:34:50;26.00;;;21.23;;
18455;SDS011;9357;49.900;8.208;2023-08-17T03:36:22;34.00;;;24.37;;
18455;SDS011;9357;49.900;8.208;2023-08-17T03:37:55;34.90;;;25.30;;
18455;SDS011;9357;49.900;8.208;2023-08-17T03:39:26;31.03;;;24.03;;
18455;SDS011;9357;49.900;8.208;2023-08-17T03:40:59;36.03;;;25.67;;
18455;SDS011;9357;49.900;8.208;2023-08-17T03:42:32;38.30;;;26.20;;
18455;SDS011;9357;49.900;8.208;2023-08-17T03:44:06;43.40;;;27.63;;
18455;SDS011;9357;49.900;8.208;2023-08-17T03:45:40;34.63;;;24.50;;
18455;SDS011;9357;49.900;8.208;2023-08-17T03:47:13;40.63;;;27.33;;
18455;SDS011;9357;49.900;8.208;2023-08-17T03:48:45;42.40;;;26.63;;
18455;SDS011;9357;49.900;8.208;2023-08-17T03:50:18;39.13;;;27.37;;
18455;SDS011;9357;49.900;8.208;2023-08-17T03:51:50;32.77;;;24.57;;
18455;SDS011;9357;49.900;8.208;2023-08-17T03:53:22;29.70;;;22.43;;
18455;SDS011;9357;49.900;8.208;2023-08-17T03:54:55;34.07;;;25.10;;
18455;SDS011;9357;49.900;8.208;2023-08-17T03:56:27;37.47;;;26.83;;
18455;SDS011;9357;49.900;8.208;2023-08-17T03:58:00;42.77;;;26.83;;
18455;SDS011;9357;49.900;8.208;2023-08-17T03:59:33;39.77;;;27.23;;
18455;SDS011;9357;49.900;8.208;2023-08-17T04:01:05;38.43;;;26.37;;
18455;SDS011;9357;49.900;8.208;2023-08-17T04:02:38;41.50;;;27.63;;
18455;SDS011;9357;49.900;8.208;2023-08-17T04:04:10;40.90;;;27.27;;
18455;SDS011;9357;49.900;8.208;2023-08-17T04:05:43;33.97;;;24.00;;
18455;SDS011;9357;49.900;8.208;2023-08-17T04:07:20;34.73;;;25.97;;
18455;SDS011;9357;49.900;8.208;2023-08-17T04:08:53;32.80;;;23.87;;
18455;SDS011;9357;49.900;8.208;2023-08-17T04:10:25;34.67;;;24.43;;
18455;SDS011;9357;49.900;8.208;2023-08-17T04:11:57;36.90;;;26.67;;
18455;SDS011;9357;49.900;8.208;2023-08-17T04:13:29;37.90;;;26.00;;
18455;SDS011;9357;49.900;8.208;2023-08-17T04:15:04;39.97;;;27.30;;
18455;SDS011;9357;49.900;8.208;2023-08-17T04:16:36;39.40;;;27.90;;
18455;SDS011;9357;49.900;8.208;2023-08-17T04:18:09;41.10;;;26.87;;
18455;SDS011;9357;49.900;8.208;2023-08-17T04:19:41;43.60;;;28.00;;
18455;SDS011;9357;49.900;8.208;2023-08-17T04:21:14;43.70;;;27.27;;
18455;SDS011;9357;49.900;8.208;2023-08-17T04:22:45;42.57;;;27.90;;
18455;SDS011;9357;49.900;8.208;2023-08-17T04:24:18;31.70;;;23.07;;
18455;SDS011;9357;49.900;8.208;2023-08-17T04:25:50;31.63;;;23.13;;
18455;SDS011;9357;49.900;8.208;2023-08-17T04:27:22;35.80;;;25.50;;
18455;SDS011;9357;49.900;8.208;2023-08-17T04:28:55;35.80;;;25.03;;
18455;SDS011;9357;49.900;8.208;2023-08-17T04:30:29;31.23;;;22.13;;
18455;SDS011;9357;49.900;8.208;2023-08-17T04:32:00;34.03;;;23.40;;
18455;SDS011;9357;49.900;8.208;2023-08-17T04:33:33;31.97;;;23.43;;
18455;SDS011;9357;49.900;8.208;2023-08-17T04:35:06;36.10;;;23.47;;
18455;SDS011;9357;49.900;8.208;2023-08-17T04:36:38;27.40;;;19.87;;
18455;SDS011;9357;49.900;8.208;2023-08-17T04:38:11;28.30;;;20.67;;
18455;SDS011;9357;49.900;8.208;2023-08-17T04:39:43;24.00;;;18.23;;
18455;SDS011;9357;49.900;8.208;2023-08-17T04:41:16;25.93;;;18.27;;
18455;SDS011;9357;49.900;8.208;2023-08-17T04:42:48;26.13;;;18.60;;
18455;SDS011;9357;49.900;8.208;2023-08-17T04:44:21;31.23;;;20.30;;
18455;SDS011;9357;49.900;8.208;2023-08-17T04:45:54;29.43;;;20.73;;
18455;SDS011;9357;49.900;8.208;2023-08-17T04:47:27;23.87;;;17.60;;
18455;SDS011;9357;49.900;8.208;2023-08-17T04:48:59;20.43;;;15.73;;
18455;SDS011;9357;49.900;8.208;2023-08-17T04:50:32;25.63;;;18.53;;
18455;SDS011;9357;49.900;8.208;2023-08-17T04:52:04;21.10;;;15.37;;
18455;SDS011;9357;49.900;8.208;2023-08-17T04:53:37;20.77;;;16.13;;
18455;SDS011;9357;49.900;8.208;2023-08-17T04:55:08;20.27;;;15.80;;
18455;SDS011;9357;49.900;8.208;2023-08-17T04:56:41;21.80;;;17.07;;
18455;SDS011;9357;49.900;8.208;2023-08-17T04:58:14;25.90;;;18.23;;
18455;SDS011;9357;49.900;8.208;2023-08-17T04:59:47;26.70;;;19.33;;
18455;SDS011;9357;49.900;8.208;2023-08-17T05:01:20;25.57;;;18.43;;
18455;SDS011;9357;49.900;8.208;2023-08-17T05:02:53;27.60;;;18.90;;
18455;SDS011;9357;49.900;8.208;2023-08-17T05:04:25;22.10;;;16.17;;
18455;SDS011;9357;49.900;8.208;2023-08-17T05:05:58;22.13;;;16.67;;
18455;SDS011;9357;49.900;8.208;2023-08-17T05:07:30;24.67;;;17.43;;
18455;SDS011;9357;49.900;8.208;2023-08-17T05:09:03;22.30;;;16.87;;
18455;SDS011;9357;49.900;8.208;2023-08-17T05:10:37;28.70;;;19.20;;
18455;SDS011;9357;49.900;8.208;2023-08-17T05:12:10;26.47;;;18.40;;
18455;SDS011;9357;49.900;8.208;2023-08-17T05:13:42;22.80;;;16.27;;
18455;SDS011;9357;49.900;8.208;2023-08-17T05:15:14;31.10;;;19.87;;
18455;SDS011;9357;49.900;8.208;2023-08-17T05:16:47;29.93;;;20.43;;
18455;SDS011;9357;49.900;8.208;2023-08-17T05:18:21;27.93;;;18.20;;
18455;SDS011;9357;49.900;8.208;2023-08-17T05:19:54;29.77;;;18.77;;
18455;SDS011;9357;49.900;8.208;2023-08-17T05:21:27;23.90;;;16.97;;
18455;SDS011;9357;49.900;8.208;2023-08-17T05:23:00;22.43;;;15.43;;
18455;SDS011;9357;49.900;8.208;2023-08-17T05:24:31;23.00;;;15.50;;
18455;SDS011;9357;49.900;8.208;2023-08-17T05:26:04;21.17;;;14.70;;
18455;SDS011;9357;49.900;8.208;2023-08-17T05:27:36;19.27;;;13.67;;
18455;SDS011;9357;49.900;8.208;2023-08-17T05:29:09;20.97;;;13.63;;
18455;SDS011;9357;49.900;8.208;2023-08-17T05:30:41;22.07;;;14.73;;
18455;SDS011;9357;49.900;8.208;2023-08-17T05:32:15;17.10;;;12.17;;
18455;SDS011;9357;49.900;8.208;2023-08-17T05:33:47;20.53;;;13.67;;
18455;SDS011;9357;49.900;8.208;2023-08-17T05:35:19;15.13;;;11.37;;
18455;SDS011;9357;49.900;8.208;2023-08-17T05:36:52;14.67;;;11.33;;
18455;SDS011;9357;49.900;8.208;2023-08-17T05:38:24;18.40;;;13.87;;
18455;SDS011;9357;49.900;8.208;2023-08-17T05:39:56;18.63;;;13.57;;
18455;SDS011;9357;49.900;8.208;2023-08-17T05:41:28;17.57;;;13.10;;
18455;SDS011;9357;49.900;8.208;2023-08-17T05:43:01;19.80;;;13.93;;
18455;SDS011;9357;49.900;8.208;2023-08-17T05:44:33;19.97;;;14.33;;
18455;SDS011;9357;49.900;8.208;2023-08-17T05:46:06;23.53;;;14.73;;
18455;SDS011;9357;49.900;8.208;2023-08-17T05:47:39;20.37;;;14.20;;
18455;SDS011;9357;49.900;8.208;2023-08-17T05:49:12;18.33;;;13.67;;
18455;SDS011;9357;49.900;8.208;2023-08-17T05:50:43;19.87;;;14.00;;
18455;SDS011;9357;49.900;8.208;2023-08-17T05:52:16;22.33;;;14.67;;
18455;SDS011;9357;49.900;8.208;2023-08-17T05:53:48;21.27;;;14.20;;
18455;SDS011;9357;49.900;8.208;2023-08-17T05:55:21;22.30;;;14.20;;
18455;SDS011;9357;49.900;8.208;2023-08-17T05:56:52;20.77;;;13.17;;
18455;SDS011;9357;49.900;8.208;2023-08-17T05:58:25;17.37;;;11.67;;
18455;SDS011;9357;49.900;8.208;2023-08-17T05:59:57;20.30;;;13.00;;
18455;SDS011;9357;49.900;8.208;2023-08-17T06:01:30;19.10;;;12.27;;
18455;SDS011;9357;49.900;8.208;2023-08-17T06:03:04;15.90;;;11.30;;
18455;SDS011;9357;49.900;8.208;2023-08-17T06:04:37;12.50;;;9.30;;
18455;SDS011;9357;49.900;8.208;2023-08-17T06:06:10;12.10;;;9.20;;
18455;SDS011;9357;49.900;8.208;2023-08-17T06:07:42;12.90;;;8.87;;
18455;SDS011;9357;49.900;8.208;2023-08-17T06:09:15;13.43;;;8.80;;
18455;SDS011;9357;49.900;8.208;2023-08-17T06:10:47;13.07;;;9.43;;
18455;SDS011;9357;49.900;8.208;2023-08-17T06:12:19;12.63;;;9.47;;
18455;SDS011;9357;49.900;8.208;2023-08-17T06:13:52;10.63;;;8.10;;
18455;SDS011;9357;49.900;8.208;2023-08-17T06:15:25;10.77;;;8.17;;
18455;SDS011;9357;49.900;8.208;2023-08-17T06:16:57;12.57;;;8.83;;
18455;SDS011;9357;49.900;8.208;2023-08-17T06:18:31;12.00;;;9.53;;
18455;SDS011;9357;49.900;8.208;2023-08-17T06:20:04;9.23;;;7.43;;
18455;SDS011;9357;49.900;8.208;2023-08-17T06:21:38;13.60;;;9.50;;
18455;SDS011;9357;49.900;8.208;2023-08-17T06:23:11;14.00;;;9.87;;
18455;SDS011;9357;49.900;8.208;2023-08-17T06:24:42;11.30;;;8.87;;
18455;SDS011;9357;49.900;8.208;2023-08-17T06:26:15;12.53;;;9.40;;
18455;SDS011;9357;49.900;8.208;2023-08-17T06:27:48;13.47;;;9.63;;
18455;SDS011;9357;49.900;8.208;2023-08-17T06:29:21;14.73;;;10.30;;
18455;SDS011;9357;49.900;8.208;2023-08-17T06:30:53;15.70;;;10.83;;
18455;SDS011;9357;49.900;8.208;2023-08-17T06:32:26;16.87;;;11.47;;
18455;SDS011;9357;49.900;8.208;2023-08-17T06:33:59;21.50;;;12.50;;
18455;SDS011;9357;49.900;8.208;2023-08-17T06:35:32;20.47;;;12.60;;
18455;SDS011;9357;49.900;8.208;2023-08-17T06:37:05;17.50;;;11.30;;
18455;SDS011;9357;49.900;8.208;2023-08-17T06:38:37;19.37;;;12.67;;
18455;SDS011;9357;49.900;8.208;2023-08-17T06:40:09;18.13;;;12.33;;
18455;SDS011;9357;49.900;8.208;2023-08-17T06:41:42;18.23;;;11.40;;
18455;SDS011;9357;49.900;8.208;2023-08-17T06:43:14;19.03;;;12.23;;
18455;SDS011;9357;49.900;8.208;2023-08-17T06:44:49;20.03;;;12.87;;
18455;SDS011;9357;49.900;8.208;2023-08-17T06:46:21;21.83;;;13.10;;
18455;SDS011;9357;49.900;8.208;2023-08-17T06:47:55;17.90;;;11.50;;
18455;SDS011;9357;49.900;8.208;2023-08-17T06:49:30;17.00;;;10.50;;
18455;SDS011;9357;49.900;8.208;2023-08-17T06:51:03;16.73;;;11.07;;
18455;SDS011;9357;49.900;8.208;2023-08-17T06:52:36;17.00;;;11.03;;
18455;SDS011;9357;49.900;8.208;2023-08-17T06:54:10;15.27;;;9.80;;
18455;SDS011;9357;49.900;8.208;2023-08-17T06:55:43;15.83;;;10.13;;
18455;SDS011;9357;49.900;8.208;2023-08-17T06:57:14;18.67;;;11.73;;
18455;SDS011;9357;49.900;8.208;2023-08-17T06:58:47;14.83;;;9.83;;
18455;SDS011;9357;49.900;8.208;2023-08-17T07:00:19;16.70;;;11.03;;
18455;SDS011;9357;49.900;8.208;2023-08-17T07:01:52;18.77;;;12.20;;
18455;SDS011;9357;49.900;8.208;2023-08-17T07:03:24;14.67;;;10.10;;
18455;SDS011;9357;49.900;8.208;2023-08-17T07:04:58;15.80;;;11.03;;
18455;SDS011;9357;49.900;8.208;2023-08-17T07:06:31;15.20;;;10.13;;
18455;SDS011;9357;49.900;8.208;2023-08-17T07:08:03;16.50;;;11.53;;
18455;SDS011;9357;49.900;8.208;2023-08-17T07:09:38;17.13;;;12.33;;
18455;SDS011;9357;49.900;8.208;2023-08-17T07:11:09;13.80;;;9.83;;
18455;SDS011;9357;49.900;8.208;2023-08-17T07:12:42;18.07;;;11.23;;
18455;SDS011;9357;49.900;8.208;2023-08-17T07:14:14;17.53;;;12.23;;
18455;SDS011;9357;49.900;8.208;2023-08-17T07:15:47;16.60;;;11.07;;
18455;SDS011;9357;49.900;8.208;2023-08-17T07:17:18;14.70;;;11.50;;
18455;SDS011;9357;49.900;8.208;2023-08-17T07:18:51;15.93;;;11.57;;
18455;SDS011;9357;49.900;8.208;2023-08-17T07:20:24;11.90;;;9.93;;
18455;SDS011;9357;49.900;8.208;2023-08-17T07:21:57;13.87;;;10.60;;
18455;SDS011;9357;49.900;8.208;2023-08-17T07:23:29;13.73;;;10.77;;
18455;SDS011;9357;49.900;8.208;2023-08-17T07:25:01;11.47;;;10.03;;
18455;SDS011;9357;49.900;8.208;2023-08-17T07:26:34;9.93;;;8.47;;
18455;SDS011;9357;49.900;8.208;2023-08-17T07:28:07;11.70;;;9.53;;
18455;SDS011;9357;49.900;8.208;2023-08-17T07:29:39;10.00;;;8.77;;
18455;SDS011;9357;49.900;8.208;2023-08-17T07:31:11;8.83;;;7.00;;
18455;SDS011;9357;49.900;8.208;2023-08-17T07:32:43;8.43;;;7.63;;
18455;SDS011;9357;49.900;8.208;2023-08-17T07:34:16;7.23;;;6.53;;
18455;SDS011;9357;49.900;8.208;2023-08-17T07:35:49;8.07;;;5.97;;
18455;SDS011;9357;49.900;8.208;2023-08-17T07:37:24;7.97;;;6.17;;
18455;SDS011;9357;49.900;8.208;2023-08-17T07:39:02;8.57;;;5.47;;
18455;SDS011;9357;49.900;8.208;2023-08-17T07:40:35;6.53;;;5.47;;
18455;SDS011;9357;49.900;8.208;2023-08-17T07:42:08;5.07;;;4.53;;
18455;SDS011;9357;49.900;8.208;2023-08-17T07:43:40;4.97;;;4.00;;
18455;SDS011;9357;49.900;8.208;2023-08-17T07:45:13;5.07;;;4.27;;
18455;SDS011;9357;49.900;8.208;2023-08-17T07:46:44;4.73;;;4.33;;
18455;SDS011;9357;49.900;8.208;2023-08-17T07:48:17;4.73;;;3.50;;
18455;SDS011;9357;49.900;8.208;2023-08-17T07:49:49;5.10;;;4.60;;
18455;SDS011;9357;49.900;8.208;2023-08-17T07:51:23;5.67;;;5.17;;
18455;SDS011;9357;49.900;8.208;2023-08-17T07:52:56;6.07;;;5.50;;
18455;SDS011;9357;49.900;8.208;2023-08-17T07:54:28;8.43;;;5.30;;
18455;SDS011;9357;49.900;8.208;2023-08-17T07:56:00;6.10;;;5.50;;
18455;SDS011;9357;49.900;8.208;2023-08-17T07:57:33;5.97;;;5.37;;
18455;SDS011;9357;49.900;8.208;2023-08-17T07:59:05;5.57;;;5.03;;
18455;SDS011;9357;49.900;8.208;2023-08-17T08:00:38;5.10;;;4.70;;
18455;SDS011;9357;49.900;8.208;2023-08-17T08:02:09;4.67;;;4.27;;
18455;SDS011;9357;49.900;8.208;2023-08-17T08:03:42;5.37;;;4.93;;
18455;SDS011;9357;49.900;8.208;2023-08-17T08:05:14;5.60;;;4.93;;
18455;SDS011;9357;49.900;8.208;2023-08-17T08:06:48;7.30;;;6.60;;
18455;SDS011;9357;49.900;8.208;2023-08-17T08:08:21;7.30;;;6.60;;
18455;SDS011;9357;49.900;8.208;2023-08-17T08:09:53;8.20;;;7.23;;
18455;SDS011;9357;49.900;8.208;2023-08-17T08:11:26;7.80;;;6.33;;
18455;SDS011;9357;49.900;8.208;2023-08-17T08:12:58;6.23;;;5.43;;
18455;SDS011;9357;49.900;8.208;2023-08-17T08:14:31;6.83;;;6.23;;
18455;SDS011;9357;49.900;8.208;2023-08-17T08:16:05;5.87;;;5.33;;
18455;SDS011;9357;49.900;8.208;2023-08-17T08:17:37;6.93;;;5.90;;
18455;SDS011;9357;49.900;8.208;2023-08-17T08:19:10;6.57;;;5.87;;
18455;SDS011;9357;49.900;8.208;2023-08-17T08:20:42;6.20;;;5.50;;
18455;SDS011;9357;49.900;8.208;2023-08-17T08:22:16;6.03;;;5.53;;
18455;SDS011;9357;49.900;8.208;2023-08-17T08:23:48;5.50;;;5.00;;
18455;SDS011;9357;49.900;8.208;2023-08-17T08:25:20;6.47;;;4.73;;
18455;SDS011;9357;49.900;8.208;2023-08-17T08:26:52;5.70;;;5.20;;
18455;SDS011;9357;49.900;8.208;2023-08-17T08:28:26;5.93;;;4.80;;
18455;SDS011;9357;49.900;8.208;2023-08-17T08:29:57;5.53;;;4.80;;
18455;SDS011;9357;49.900;8.208;2023-08-17T08:31:30;5.03;;;4.60;;
18455;SDS011;9357;49.900;8.208;2023-08-17T08:33:02;6.27;;;5.77;;
18455;SDS011;9357;49.900;8.208;2023-08-17T08:34:35;5.90;;;5.40;;
18455;SDS011;9357;49.900;8.208;2023-08-17T08:36:07;5.20;;;4.70;;
18455;SDS011;9357;49.900;8.208;2023-08-17T08:37:41;6.00;;;5.50;;
18455;SDS011;9357;49.900;8.208;2023-08-17T08:39:13;5.70;;;5.30;;
18455;SDS011;9357;49.900;8.208;2023-08-17T08:40:46;6.80;;;6.20;;
18455;SDS011;9357;49.900;8.208;2023-08-17T08:42:19;6.23;;;5.73;;
18455;SDS011;9357;49.900;8.208;2023-08-17T08:43:52;7.73;;;6.00;;
18455;SDS011;9357;49.900;8.208;2023-08-17T08:45:26;6.23;;;5.60;;
18455;SDS011;9357;49.900;8.208;2023-08-17T08:47:00;5.03;;;4.57;;
18455;SDS011;9357;49.900;8.208;2023-08-17T08:48:33;8.37;;;6.67;;
18455;SDS011;9357;49.900;8.208;2023-08-17T08:50:07;6.93;;;6.33;;
18455;SDS011;9357;49.900;8.208;2023-08-17T08:51:43;8.60;;;6.63;;
18455;SDS011;9357;49.900;8.208;2023-08-17T08:53:19;6.90;;;6.20;;
18455;SDS011;9357;49.900;8.208;2023-08-17T08:54:57;5.80;;;5.30;;
18455;SDS011;9357;49.900;8.208;2023-08-17T08:56:31;6.07;;;5.47;;
18455;SDS011;9357;49.900;8.208;2023-08-17T08:58:05;6.33;;;5.57;;
18455;SDS011;9357;49.900;8.208;2023-08-17T08:59:38;4.97;;;4.57;;
18455;SDS011;9357;49.900;8.208;2023-08-17T09:01:15;7.07;;;6.30;;
18455;SDS011;9357;49.900;8.208;2023-08-17T09:02:48;7.13;;;5.40;;
18455;SDS011;9357;49.900;8.208;2023-08-17T09:04:22;6.10;;;5.57;;
18455;SDS011;9357;49.900;8.208;2023-08-17T09:05:54;5.93;;;4.80;;
18455;SDS011;9357;49.900;8.208;2023-08-17T09:07:29;5.87;;;5.10;;
18455;SDS011;9357;49.900;8.208;2023-08-17T09:09:02;7.47;;;5.27;;
18455;SDS011;9357;49.900;8.208;2023-08-17T09:10:35;5.10;;;4.60;;
18455;SDS011;9357;49.900;8.208;2023-08-17T09:12:09;6.37;;;5.50;;
18455;SDS011;9357;49.900;8.208;2023-08-17T09:13:42;6.87;;;4.57;;
18455;SDS011;9357;49.900;8.208;2023-08-17T09:15:14;5.50;;;5.00;;
18455;SDS011;9357;49.900;8.208;2023-08-17T09:16:47;6.30;;;5.03;;
18455;SDS011;9357;49.900;8.208;2023-08-17T09:18:19;4.87;;;4.37;;